createdAt,value
2023-04-07T00:00:11.405Z,61.44
2023-04-07T00:02:47.611Z,61.64
2023-04-07T00:05:22.477Z,61.42
2023-04-07T00:07:58.201Z,61.22
2023-04-07T00:10:34.125Z,61.48
2023-04-07T00:13:08.331Z,61.48
2023-04-07T00:15:44.553Z,61.37
2023-04-07T00:18:20.734Z,61.34
2023-04-07T00:20:56.941Z,60.58
2023-04-07T00:23:32.041Z,60.72
2023-04-07T00:26:07.337Z,60.54
2023-04-07T00:28:43.669Z,60.50
2023-04-07T00:31:19.902Z,60.58
2023-04-07T00:33:56.313Z,60.58
2023-04-07T00:36:34.365Z,60.88
2023-04-07T00:39:10.239Z,61.46
2023-04-07T00:41:46.455Z,61.04
2023-04-07T00:44:22.888Z,61.13
2023-04-07T00:46:59.123Z,61.86
2023-04-07T00:49:35.296Z,61.86
2023-04-07T00:52:11.664Z,61.78
2023-04-07T00:54:49.812Z,61.78
2023-04-07T00:57:27.457Z,61.52
2023-04-07T01:00:03.729Z,62.19
2023-04-07T01:02:53.124Z,62.38
2023-04-07T01:05:31.263Z,62.56
2023-04-07T01:08:22.526Z,62.72
2023-04-07T01:11:06.207Z,62.08
2023-04-07T01:13:58.653Z,62.12
2023-04-07T01:16:53.841Z,62.24
2023-04-07T01:19:53.547Z,62.30
2023-04-07T01:22:38.423Z,62.32
2023-04-07T01:25:27.637Z,62.09
2023-04-07T01:28:35.898Z,61.70
2023-04-07T01:31:14.442Z,61.37
2023-04-07T01:33:52.561Z,61.64
2023-04-07T01:36:30.942Z,61.43
2023-04-07T01:39:06.961Z,61.36
2023-04-07T01:41:43.052Z,61.08
2023-04-07T01:44:19.654Z,61.10
2023-04-07T01:46:55.966Z,61.34
2023-04-07T01:49:32.831Z,61.19
2023-04-07T01:52:10.577Z,61.00
2023-04-07T01:54:46.823Z,60.83
2023-04-07T01:57:23.451Z,60.58
2023-04-07T02:00:05.574Z,60.18
2023-04-07T02:02:52.613Z,59.76
2023-04-07T02:05:30.965Z,59.83
2023-04-07T02:08:10.092Z,59.67
2023-04-07T02:10:46.160Z,59.92
2023-04-07T02:13:24.056Z,58.67
2023-04-07T02:16:02.453Z,59.28
2023-04-07T02:18:39.295Z,59.29
2023-04-07T02:21:17.358Z,59.16
2023-04-07T02:23:52.916Z,59.18
2023-04-07T02:26:27.875Z,58.90
2023-04-07T02:29:04.135Z,58.24
2023-04-07T02:31:39.668Z,59.16
2023-04-07T02:34:15.968Z,58.99
2023-04-07T02:36:50.103Z,58.18
2023-04-07T02:39:26.175Z,58.23
2023-04-07T02:42:03.436Z,57.06
2023-04-07T02:44:37.960Z,57.21
2023-04-07T02:47:14.273Z,56.76
2023-04-07T02:49:50.604Z,56.71
2023-04-07T02:52:26.792Z,54.80
2023-04-07T02:55:02.963Z,55.81
2023-04-07T02:57:39.231Z,54.57
2023-04-07T03:00:14.994Z,54.87
2023-04-07T03:03:10.992Z,55.82
2023-04-07T03:05:43.727Z,56.24
2023-04-07T03:08:13.999Z,56.04
2023-04-07T03:10:43.655Z,55.80
2023-04-07T03:13:14.750Z,55.53
2023-04-07T03:15:45.459Z,56.25
2023-04-07T03:18:17.361Z,54.59
2023-04-07T03:20:50.409Z,54.00
2023-04-07T03:23:20.031Z,54.28
2023-04-07T03:25:49.364Z,53.89
2023-04-07T03:28:19.206Z,54.02
2023-04-07T03:30:48.354Z,53.97
2023-04-07T03:33:18.185Z,54.20
2023-04-07T03:35:47.521Z,54.54
2023-04-07T03:38:17.389Z,54.16
2023-04-07T03:40:48.128Z,55.04
2023-04-07T03:43:17.712Z,55.69
2023-04-07T03:45:48.217Z,54.33
2023-04-07T03:48:19.522Z,54.50
2023-04-07T03:50:59.659Z,53.84
2023-04-07T03:53:29.997Z,53.40
2023-04-07T03:56:01.139Z,53.06
2023-04-07T03:58:45.641Z,51.58
2023-04-07T04:01:21.110Z,50.82
2023-04-07T04:03:53.151Z,52.18
2023-04-07T04:06:28.638Z,51.89
2023-04-07T04:09:06.148Z,51.84
2023-04-07T04:11:39.656Z,52.57
2023-04-07T04:14:09.560Z,50.74
2023-04-07T04:16:39.953Z,50.60
2023-04-07T04:19:25.016Z,49.78
2023-04-07T04:21:55.089Z,50.73
2023-04-07T04:24:24.279Z,48.38
2023-04-07T04:26:55.517Z,49.36
2023-04-07T04:29:25.056Z,49.25
2023-04-07T04:31:56.560Z,49.17
2023-04-07T04:34:26.555Z,48.19
2023-04-07T04:36:57.416Z,48.06
2023-04-07T04:39:27.074Z,47.12
2023-04-07T04:41:57.905Z,48.13
2023-04-07T04:44:33.899Z,48.97
2023-04-07T04:47:05.719Z,49.72
2023-04-07T04:49:35.514Z,48.33
2023-04-07T04:52:06.761Z,49.06
2023-04-07T04:54:42.267Z,48.35
2023-04-07T04:57:13.694Z,49.22
2023-04-07T04:59:43.688Z,48.79
2023-04-07T05:02:13.725Z,48.35
2023-04-07T05:04:43.698Z,48.91
2023-04-07T05:07:26.163Z,47.58
2023-04-07T05:09:55.693Z,47.30
2023-04-07T05:12:24.965Z,48.47
2023-04-07T05:14:59.901Z,48.88
2023-04-07T05:17:29.308Z,45.63
2023-04-07T05:20:01.990Z,47.15
2023-04-07T05:22:38.305Z,45.66
2023-04-07T05:25:10.943Z,45.21
2023-04-07T05:27:42.367Z,44.50
2023-04-07T05:30:17.006Z,44.40
2023-04-07T05:32:46.449Z,43.57
2023-04-07T05:35:27.153Z,44.17
2023-04-07T05:37:58.870Z,43.11
2023-04-07T05:40:31.963Z,43.27
2023-04-07T05:43:04.573Z,42.64
2023-04-07T05:45:35.832Z,40.76
2023-04-07T05:48:05.332Z,41.62
2023-04-07T05:50:42.855Z,40.70
2023-04-07T05:53:16.473Z,41.44
2023-04-07T05:55:46.007Z,38.22
2023-04-07T05:58:27.549Z,39.12
2023-04-07T06:00:58.862Z,38.78
2023-04-07T06:03:28.581Z,36.61
2023-04-07T06:06:09.541Z,36.72
2023-04-07T06:08:39.377Z,36.44
2023-04-07T06:11:08.632Z,33.38
2023-04-07T06:13:38.383Z,34.51
2023-04-07T06:16:07.701Z,34.74
2023-04-07T06:18:38.188Z,33.28
2023-04-07T06:21:09.537Z,34.44
2023-04-07T06:23:39.247Z,36.27
2023-04-07T06:26:16.037Z,35.71
2023-04-07T06:28:45.655Z,35.44
2023-04-07T06:31:16.648Z,35.36
2023-04-07T06:33:47.138Z,34.75
2023-04-07T06:36:16.871Z,34.44
2023-04-07T06:38:46.144Z,33.53
2023-04-07T06:41:18.220Z,32.82
2023-04-07T06:43:55.953Z,32.20
2023-04-07T06:46:29.644Z,32.18
2023-04-07T06:49:00.147Z,33.29
2023-04-07T06:51:29.801Z,32.41
2023-04-07T06:53:59.054Z,33.32
2023-04-07T06:56:28.639Z,32.16
2023-04-07T06:58:58.020Z,30.78
2023-04-07T07:01:27.623Z,31.41
2023-04-07T07:03:57.101Z,31.26
2023-04-07T07:06:27.305Z,30.89
2023-04-07T07:08:57.073Z,30.14
2023-04-07T07:11:26.780Z,29.72
2023-04-07T07:13:56.325Z,30.73
2023-04-07T07:16:25.871Z,30.84
2023-04-07T07:18:55.209Z,31.17
2023-04-07T07:21:24.973Z,30.82
2023-04-07T07:23:54.159Z,30.05
2023-04-07T07:26:24.990Z,29.15
2023-04-07T07:28:55.382Z,30.23
2023-04-07T09:06:19.588Z,27.85
2023-04-07T09:08:49.400Z,26.05
2023-04-07T09:14:07.845Z,25.71
2023-04-07T09:16:38.710Z,25.75
2023-04-07T09:19:08.821Z,25.58
2023-04-07T09:21:54.965Z,26.01
2023-04-07T09:24:26.748Z,25.77
2023-04-07T09:27:14.064Z,27.07
2023-04-07T09:29:46.412Z,27.25
2023-04-07T09:32:44.830Z,24.57
2023-04-07T09:35:14.344Z,25.81
2023-04-07T09:37:44.015Z,25.38
2023-04-07T09:40:13.736Z,25.81
2023-04-07T09:42:49.459Z,25.02
2023-04-07T09:48:06.475Z,24.61
2023-04-07T09:50:39.098Z,25.98
2023-04-07T09:53:09.796Z,25.75
2023-04-07T09:55:43.151Z,25.26
2023-04-07T09:58:17.553Z,24.87
2023-04-07T10:01:23.579Z,23.72
2023-04-07T10:03:53.844Z,25.02
2023-04-07T10:06:24.710Z,25.72
2023-04-07T10:08:53.710Z,25.56
2023-04-07T10:11:22.875Z,25.98
2023-04-07T10:13:52.864Z,24.59
2023-04-07T10:16:23.901Z,24.99
2023-04-07T10:18:53.293Z,24.00
2023-04-07T10:21:22.652Z,23.59
2023-04-07T10:24:00.569Z,23.95
2023-04-07T10:26:34.146Z,24.19
2023-04-07T10:29:11.725Z,24.07
2023-04-07T10:31:41.624Z,23.38
2023-04-07T10:34:10.387Z,24.02
2023-04-07T10:37:15.093Z,24.01
2023-04-07T10:39:44.062Z,23.19
2023-04-07T10:42:51.875Z,22.70
2023-04-07T10:45:50.088Z,22.93
2023-04-07T10:48:20.919Z,22.80
2023-04-07T10:51:16.256Z,22.47
2023-04-07T10:54:18.622Z,23.67
2023-04-07T10:57:09.702Z,23.59
2023-04-07T10:59:41.985Z,23.53
2023-04-07T11:02:18.662Z,23.76
2023-04-07T11:04:48.437Z,24.25
2023-04-07T11:07:22.058Z,22.60
2023-04-07T11:09:51.577Z,23.25
2023-04-07T11:12:27.581Z,23.49
2023-04-07T11:14:57.772Z,23.51
2023-04-07T11:17:29.079Z,24.53
2023-04-07T11:19:59.724Z,24.17
2023-04-07T11:22:30.651Z,23.53
2023-04-07T11:25:00.820Z,24.30
2023-04-07T11:27:31.089Z,24.12
2023-04-07T11:30:00.849Z,24.40
2023-04-07T11:32:30.861Z,25.61
2023-04-07T11:35:00.058Z,25.76
2023-04-07T11:37:30.028Z,25.15
2023-04-07T11:40:00.614Z,24.85
2023-04-07T11:42:41.225Z,25.15
2023-04-07T11:45:23.246Z,25.62
2023-04-07T11:47:53.053Z,26.25
2023-04-07T11:50:41.594Z,26.65
2023-04-07T11:53:11.254Z,27.02
2023-04-07T11:55:40.113Z,26.71
2023-04-07T11:58:13.239Z,27.37
2023-04-07T12:00:59.314Z,27.43
2023-04-07T12:03:29.013Z,27.03
2023-04-07T12:05:58.039Z,27.38
2023-04-07T12:08:41.069Z,26.27
2023-04-07T12:11:11.149Z,26.62
2023-04-07T12:13:40.394Z,26.82
2023-04-07T12:16:09.785Z,24.84
2023-04-07T12:18:38.911Z,24.63
2023-04-07T12:21:07.897Z,25.31
2023-04-07T12:23:37.298Z,24.56
2023-04-07T12:26:06.286Z,24.62
2023-04-07T12:28:35.944Z,23.56
2023-04-07T12:31:05.733Z,24.70
2023-04-07T12:33:35.349Z,25.00
2023-04-07T12:36:04.753Z,25.42
2023-04-07T12:38:34.926Z,26.33
2023-04-07T12:41:04.345Z,26.85
2023-04-07T12:43:33.788Z,27.59
2023-04-07T12:46:02.915Z,28.01
2023-04-07T12:48:32.271Z,28.26
2023-04-07T12:51:02.524Z,27.36
2023-04-07T12:53:31.826Z,27.96
2023-04-07T12:56:01.025Z,26.37
2023-04-07T12:58:30.335Z,27.53
2023-04-07T13:01:01.922Z,26.59
2023-04-07T13:03:31.531Z,27.78
2023-04-07T13:06:02.648Z,28.02
2023-04-07T13:08:32.023Z,27.92
2023-04-07T13:11:00.878Z,28.20
2023-04-07T13:13:30.225Z,28.54
2023-04-07T13:15:59.107Z,29.06
2023-04-07T13:18:28.000Z,29.53
2023-04-07T13:21:26.370Z,29.38
2023-04-07T13:23:46.253Z,30.32
2023-04-07T13:26:15.341Z,29.91
2023-04-07T13:28:46.818Z,30.07
2023-04-07T13:31:17.200Z,30.47
2023-04-07T13:33:47.133Z,30.92
2023-04-07T13:36:16.455Z,31.22
2023-04-07T13:38:45.446Z,31.09
2023-04-07T13:41:14.515Z,31.31
2023-04-07T13:43:43.513Z,31.16
2023-04-07T13:48:52.038Z,32.03
2023-04-07T13:51:21.043Z,32.69
2023-04-07T13:53:50.277Z,32.71
2023-04-07T13:56:19.423Z,33.31
2023-04-07T13:58:48.895Z,33.30
2023-04-07T14:01:17.823Z,33.03
2023-04-07T14:03:48.328Z,33.50
2023-04-07T14:06:17.755Z,33.75
2023-04-07T14:08:46.652Z,33.49
2023-04-07T14:11:19.591Z,33.61
2023-04-07T14:13:48.901Z,34.45
2023-04-07T14:16:18.545Z,35.51
2023-04-07T14:18:48.016Z,34.78
2023-04-07T14:21:17.127Z,34.76
2023-04-07T14:23:46.463Z,34.93
2023-04-07T14:26:15.371Z,34.87
2023-04-07T14:28:44.450Z,35.34
2023-04-07T14:31:17.666Z,34.73
2023-04-07T14:33:47.772Z,35.09
2023-04-07T14:36:18.488Z,34.88
2023-04-07T14:38:47.979Z,34.94
2023-04-07T14:41:21.302Z,35.36
2023-04-07T14:43:56.719Z,35.26
2023-04-07T14:46:27.050Z,35.75
2023-04-07T14:48:57.210Z,36.30
2023-04-07T14:51:26.618Z,36.40
2023-04-07T14:53:57.003Z,36.97
2023-04-07T14:56:26.144Z,37.14
2023-04-07T14:58:55.037Z,37.49
2023-04-07T15:01:24.317Z,38.16
2023-04-07T15:03:54.603Z,37.59
2023-04-07T15:06:24.458Z,37.96
2023-04-07T15:08:53.585Z,38.57
2023-04-07T15:11:23.019Z,38.77
2023-04-07T15:13:51.851Z,38.76
2023-04-07T15:16:21.774Z,38.95
2023-04-07T15:18:51.931Z,38.47
2023-04-07T15:21:21.087Z,39.00
2023-04-07T15:23:50.422Z,39.08
2023-04-07T15:26:19.834Z,39.17
2023-04-07T15:28:49.231Z,39.98
2023-04-07T15:31:19.771Z,39.93
2023-04-07T15:33:49.291Z,40.27
2023-04-07T15:36:18.601Z,40.52
2023-04-07T15:38:47.584Z,40.51
2023-04-07T15:41:18.057Z,41.17
2023-04-07T15:43:47.152Z,41.02
2023-04-07T15:46:17.124Z,41.77
2023-04-07T15:48:47.158Z,42.54
2023-04-07T15:51:16.415Z,42.52
2023-04-07T15:53:45.798Z,44.09
2023-04-07T15:56:15.080Z,44.81
2023-04-07T15:58:46.054Z,44.74
2023-04-07T16:01:15.385Z,45.57
2023-04-07T16:03:44.428Z,45.56
2023-04-07T16:06:13.758Z,45.79
2023-04-07T16:08:42.874Z,45.55
2023-04-07T16:11:11.947Z,46.27
2023-04-07T16:13:41.223Z,46.72
2023-04-07T16:16:10.138Z,47.34
2023-04-07T16:18:39.268Z,46.80
2023-04-07T16:21:09.767Z,47.23
2023-04-07T16:23:38.796Z,47.33
2023-04-07T16:26:07.969Z,47.55
2023-04-07T16:28:37.404Z,47.33
2023-04-07T16:31:09.663Z,47.20
2023-04-07T16:33:38.956Z,46.80
2023-04-07T16:36:08.488Z,47.34
2023-04-07T16:38:37.738Z,47.11
2023-04-07T16:41:09.268Z,47.44
2023-04-07T16:43:38.349Z,48.60
2023-04-07T16:46:10.083Z,47.89
2023-04-07T16:48:39.246Z,47.88
2023-04-07T16:51:08.176Z,49.23
2023-04-07T16:53:37.627Z,50.19
2023-04-07T16:56:06.814Z,49.37
2023-04-07T16:58:35.954Z,48.99
2023-04-07T17:01:05.161Z,49.89
2023-04-07T17:03:34.799Z,50.31
2023-04-07T17:06:06.630Z,50.69
2023-04-07T17:08:37.012Z,51.05
2023-04-07T17:11:12.440Z,50.45
2023-04-07T17:13:41.749Z,50.65
2023-04-07T17:16:15.496Z,50.80
2023-04-07T17:18:44.738Z,50.22
2023-04-07T17:21:16.650Z,50.90
2023-04-07T17:23:45.763Z,52.16
2023-04-07T17:26:14.526Z,52.25
2023-04-07T17:28:43.909Z,52.54
2023-04-07T17:31:14.935Z,53.18
2023-04-07T17:33:44.460Z,53.91
2023-04-07T17:36:13.486Z,54.11
2023-04-07T17:38:42.876Z,54.11
2023-04-07T17:41:11.944Z,54.66
2023-04-07T17:43:40.917Z,55.33
2023-04-07T17:46:10.010Z,55.47
2023-04-07T17:48:39.447Z,56.46
2023-04-07T17:51:08.869Z,56.47
2023-04-07T17:53:38.237Z,56.19
2023-04-07T17:56:07.759Z,56.07
2023-04-07T17:58:36.861Z,56.82
2023-04-07T18:01:06.118Z,57.01
2023-04-07T18:03:35.295Z,57.59
2023-04-07T18:06:04.263Z,57.59
2023-04-07T18:08:34.112Z,57.96
2023-04-07T18:11:04.262Z,57.11
2023-04-07T18:13:35.142Z,57.16
2023-04-07T18:16:08.496Z,56.73
2023-04-07T18:18:41.606Z,57.22
2023-04-07T18:21:10.606Z,58.47
2023-04-07T18:23:39.519Z,58.32
2023-04-07T18:26:08.832Z,58.59
2023-04-07T18:28:37.902Z,59.20
2023-04-07T18:31:08.940Z,59.89
2023-04-07T18:33:38.318Z,59.83
2023-04-07T18:36:09.025Z,59.12
2023-04-07T18:38:38.980Z,59.30
2023-04-07T18:41:08.582Z,59.48
2023-04-07T18:43:37.453Z,59.59
2023-04-07T18:46:06.998Z,59.63
2023-04-07T18:48:36.130Z,59.96
2023-04-07T18:51:05.259Z,59.58
2023-04-07T18:53:34.070Z,60.20
2023-04-07T18:56:03.270Z,59.84
2023-04-07T18:58:32.820Z,59.55
2023-04-07T19:01:01.970Z,58.66
2023-04-07T19:03:31.215Z,59.49
2023-04-07T19:08:31.992Z,59.25
2023-04-07T19:11:01.083Z,58.80
2023-04-07T19:13:30.737Z,57.83
2023-04-07T19:16:00.209Z,57.63
2023-04-07T19:18:30.173Z,56.51
2023-04-07T19:20:59.420Z,57.00
2023-04-07T19:23:28.285Z,57.06
2023-04-07T19:25:57.684Z,56.95
2023-04-07T19:28:26.950Z,59.32
2023-04-07T19:30:56.083Z,60.48
2023-04-07T19:33:25.401Z,60.60
2023-04-07T19:35:55.102Z,60.16
2023-04-07T19:38:24.329Z,60.58
2023-04-07T19:40:53.424Z,59.92
2023-04-07T19:43:23.179Z,59.64
2023-04-07T19:45:52.405Z,59.67
2023-04-07T19:48:21.973Z,59.57
2023-04-07T19:50:52.536Z,60.05
2023-04-07T19:53:22.912Z,59.84
2023-04-07T19:55:52.499Z,59.70
2023-04-07T19:58:23.194Z,57.88
2023-04-07T20:00:53.220Z,57.85
2023-04-07T20:03:23.093Z,57.15
2023-04-07T20:05:54.309Z,57.13
2023-04-07T20:08:24.003Z,56.28
2023-04-07T20:10:54.551Z,55.77
2023-04-07T20:13:24.999Z,55.32
2023-04-07T20:15:55.485Z,55.43
2023-04-07T20:18:25.530Z,55.97
2023-04-07T20:21:09.047Z,55.47
2023-04-07T20:23:39.253Z,53.75
2023-04-07T20:26:11.129Z,52.22
2023-04-07T20:28:41.635Z,50.87
2023-04-07T20:31:12.746Z,49.83
2023-04-07T20:33:43.527Z,49.56
2023-04-07T20:36:14.199Z,49.11
2023-04-07T20:38:45.773Z,49.30
2023-04-07T20:41:18.111Z,49.36
2023-04-07T20:43:48.071Z,50.55
2023-04-07T20:46:18.410Z,50.29
2023-04-07T20:48:49.489Z,50.89
2023-04-07T20:51:20.356Z,52.28
2023-04-07T20:53:50.601Z,52.76
2023-04-07T20:56:23.493Z,53.48
2023-04-07T20:58:54.548Z,52.86
2023-04-07T21:01:25.812Z,52.45
2023-04-07T21:03:56.851Z,50.80
2023-04-07T21:06:28.274Z,50.44
2023-04-07T21:08:58.279Z,50.77
2023-04-07T21:11:28.953Z,51.20
2023-04-07T21:13:58.920Z,51.22
2023-04-07T21:16:30.463Z,51.56
2023-04-07T21:19:01.252Z,51.75
2023-04-07T21:21:33.701Z,51.63
2023-04-07T21:24:03.536Z,52.04
2023-04-07T21:26:33.956Z,53.05
2023-04-07T21:29:04.254Z,53.53
2023-04-07T21:31:36.392Z,54.06
2023-04-07T21:34:07.043Z,54.59
2023-04-07T21:36:38.104Z,54.63
2023-04-07T21:39:09.472Z,54.80
2023-04-07T21:41:39.679Z,55.32
2023-04-07T21:44:12.258Z,55.00
2023-04-07T21:46:43.416Z,53.98
2023-04-07T21:49:13.623Z,53.26
2023-04-07T21:51:44.294Z,52.39
2023-04-07T21:54:14.764Z,51.90
2023-04-07T21:56:48.454Z,51.49
2023-04-07T21:59:19.236Z,50.92
2023-04-07T22:01:49.669Z,50.07
2023-04-07T22:04:20.703Z,50.36
2023-04-07T22:06:51.422Z,50.04
2023-04-07T22:09:23.019Z,50.01
2023-04-07T22:11:54.148Z,50.23
2023-04-07T22:14:26.998Z,49.28
2023-04-07T22:16:57.581Z,48.95
2023-04-07T22:19:29.220Z,49.07
2023-04-07T22:21:59.577Z,49.39
2023-04-07T22:24:29.913Z,49.98
2023-04-07T22:27:00.744Z,49.55
2023-04-07T22:29:31.745Z,48.79
2023-04-07T22:32:01.594Z,48.68
2023-04-07T22:34:32.655Z,48.91
2023-04-07T22:37:02.992Z,48.81
2023-04-07T22:39:33.988Z,49.85
2023-04-07T22:42:04.172Z,49.49
2023-04-07T22:44:34.357Z,49.47
2023-04-07T22:47:05.519Z,49.69
2023-04-07T22:49:36.178Z,50.10
2023-04-07T22:52:06.802Z,50.35
2023-04-07T22:54:37.500Z,50.19
2023-04-07T22:57:07.919Z,50.07
2023-04-07T22:59:38.927Z,49.80
2023-04-07T23:02:10.189Z,50.33
2023-04-07T23:04:40.895Z,50.08
2023-04-07T23:07:11.970Z,49.89
2023-04-07T23:09:42.665Z,50.40
2023-04-07T23:12:13.731Z,50.65
2023-04-07T23:14:44.613Z,50.96
2023-04-07T23:17:15.382Z,50.66
2023-04-07T23:19:45.673Z,50.54
2023-04-07T23:22:16.127Z,50.81
2023-04-07T23:24:46.583Z,50.48
2023-04-07T23:27:16.823Z,50.96
2023-04-07T23:29:46.178Z,50.87
2023-04-07T23:32:14.981Z,51.23
2023-04-07T23:34:44.714Z,51.36
2023-04-07T23:37:13.506Z,51.70
2023-04-07T23:39:42.472Z,52.15
2023-04-07T23:42:11.813Z,52.40
2023-04-07T23:44:40.850Z,51.98
2023-04-07T23:47:09.959Z,52.49
2023-04-07T23:49:39.267Z,52.03
2023-04-07T23:52:08.452Z,52.71
2023-04-07T23:54:37.979Z,51.37
2023-04-07T23:57:07.337Z,51.71
2023-04-07T23:59:36.373Z,51.59
